createdAt,value
2018-07-13T00:00:33.979Z,92.30
2018-07-13T00:01:34.185Z,92.35
2018-07-13T00:02:33.876Z,92.50
2018-07-13T00:03:33.830Z,92.25
2018-07-13T00:04:33.779Z,92.35
2018-07-13T00:05:33.736Z,92.30
2018-07-13T00:06:33.686Z,92.59
2018-07-13T00:07:33.898Z,92.97
2018-07-13T00:08:33.594Z,92.50
2018-07-13T00:09:33.556Z,92.79
2018-07-13T00:10:33.499Z,92.50
2018-07-13T00:11:33.446Z,92.11
2018-07-13T00:12:33.380Z,92.16
2018-07-13T00:13:33.601Z,92.54
2018-07-13T00:14:33.305Z,92.11
2018-07-13T00:15:33.228Z,92.11
2018-07-13T00:16:33.196Z,92.35
2018-07-13T00:17:33.144Z,91.64
2018-07-13T00:18:33.101Z,92.11
2018-07-13T00:19:33.297Z,92.11
2018-07-13T00:20:32.999Z,92.59
2018-07-13T00:21:32.936Z,92.50
2018-07-13T00:22:32.903Z,92.50
2018-07-13T00:23:32.862Z,91.54
2018-07-13T00:24:32.806Z,91.83
2018-07-13T00:25:33.011Z,91.78
2018-07-13T00:26:32.720Z,91.83
2018-07-13T00:27:32.663Z,91.74
2018-07-13T00:28:32.605Z,91.64
2018-07-13T00:29:32.565Z,91.54
2018-07-13T00:30:32.515Z,92.40
2018-07-13T00:31:32.717Z,92.50
2018-07-13T00:32:32.422Z,92.30
2018-07-13T00:33:32.385Z,92.30
2018-07-13T00:34:32.328Z,91.93
2018-07-13T00:35:32.284Z,91.64
2018-07-13T00:36:32.229Z,91.74
2018-07-13T00:37:32.449Z,91.83
2018-07-13T00:38:32.137Z,91.74
2018-07-13T00:39:32.104Z,91.54
2018-07-13T00:40:32.049Z,92.30
2018-07-13T00:41:32.008Z,92.30
2018-07-13T00:42:32.209Z,92.11
2018-07-13T00:43:31.914Z,92.02
2018-07-13T00:44:31.839Z,91.64
2018-07-13T00:45:31.788Z,91.54
2018-07-13T00:46:31.730Z,91.83
2018-07-13T00:47:31.690Z,92.30
2018-07-13T00:48:31.882Z,92.30
2018-07-13T00:49:31.594Z,92.88
2018-07-13T00:50:31.559Z,92.59
2018-07-13T00:51:31.510Z,92.50
2018-07-13T00:52:31.475Z,92.11
2018-07-13T00:53:31.419Z,91.93
2018-07-13T00:54:31.603Z,91.54
2018-07-13T00:55:31.312Z,92.02
2018-07-13T00:56:31.249Z,91.45
2018-07-13T00:57:31.232Z,91.45
2018-07-13T00:58:31.179Z,91.54
2018-07-13T00:59:31.132Z,91.83
2018-07-13T01:00:31.326Z,91.54
2018-07-13T01:01:31.039Z,92.50
2018-07-13T01:02:30.985Z,92.69
2018-07-13T01:03:30.917Z,92.02
2018-07-13T01:04:30.915Z,92.30
2018-07-13T01:05:30.878Z,92.30
2018-07-13T01:06:31.082Z,92.30
2018-07-13T01:07:30.809Z,92.40
2018-07-13T01:08:30.730Z,92.40
2018-07-13T01:09:30.631Z,92.30
2018-07-13T01:10:30.588Z,92.40
2018-07-13T01:11:30.549Z,92.11
2018-07-13T01:12:30.723Z,91.74
2018-07-13T01:13:30.416Z,91.35
2018-07-13T01:14:30.365Z,91.97
2018-07-13T01:15:30.307Z,91.45
2018-07-13T01:16:30.261Z,92.40
2018-07-13T01:17:30.212Z,92.50
2018-07-13T01:18:30.417Z,92.59
2018-07-13T01:19:30.105Z,92.50
2018-07-13T01:20:30.062Z,92.97
2018-07-13T01:21:30.015Z,92.97
2018-07-13T01:22:29.960Z,92.97
2018-07-13T01:23:29.908Z,92.69
2018-07-13T01:24:30.111Z,92.88
2018-07-13T01:25:29.811Z,92.88
2018-07-13T01:26:29.769Z,92.97
2018-07-13T01:27:29.717Z,93.07
2018-07-13T01:28:29.669Z,92.79
2018-07-13T01:29:29.621Z,93.36
2018-07-13T01:30:29.818Z,93.07
2018-07-13T01:31:29.520Z,93.36
2018-07-13T01:32:29.471Z,93.45
2018-07-13T01:33:29.423Z,93.93
2018-07-13T01:34:29.375Z,94.22
2018-07-13T01:35:29.329Z,94.22
2018-07-13T01:36:29.529Z,93.93
2018-07-13T01:37:29.232Z,93.26
2018-07-13T01:38:29.181Z,93.45
2018-07-13T01:39:29.137Z,92.97
2018-07-13T01:40:29.089Z,93.45
2018-07-13T01:41:29.043Z,94.02
2018-07-13T01:42:29.238Z,93.65
2018-07-13T01:43:28.936Z,93.26
2018-07-13T01:44:28.895Z,93.45
2018-07-13T01:45:28.841Z,92.88
2018-07-13T01:46:28.791Z,92.88
2018-07-13T01:47:28.743Z,92.59
2018-07-13T01:48:28.945Z,92.59
2018-07-13T01:49:28.645Z,92.97
2018-07-13T01:50:28.608Z,92.88
2018-07-13T01:51:28.550Z,92.50
2018-07-13T01:52:28.508Z,92.30
2018-07-13T01:53:28.451Z,92.50
2018-07-13T01:54:28.665Z,92.69
2018-07-13T01:55:28.364Z,92.69
2018-07-13T01:56:28.318Z,92.59
2018-07-13T01:57:28.266Z,92.97
2018-07-13T01:58:28.219Z,92.88
2018-07-13T01:59:28.165Z,92.59
2018-07-13T02:00:28.362Z,92.69
2018-07-13T02:01:28.063Z,92.50
2018-07-13T02:02:28.013Z,92.50
2018-07-13T02:03:27.959Z,92.11
2018-07-13T02:04:27.911Z,92.21
2018-07-13T02:05:27.862Z,92.59
2018-07-13T02:06:28.065Z,92.79
2018-07-13T02:07:27.764Z,92.97
2018-07-13T02:08:27.716Z,92.88
2018-07-13T02:09:27.668Z,92.21
2018-07-13T02:10:27.624Z,91.93
2018-07-13T02:11:27.572Z,91.54
2018-07-13T02:12:27.774Z,91.54
2018-07-13T02:13:27.478Z,91.45
2018-07-13T02:14:27.429Z,92.40
2018-07-13T02:15:27.384Z,91.93
2018-07-13T02:16:27.329Z,91.74
2018-07-13T02:17:27.282Z,92.59
2018-07-13T02:18:27.483Z,92.30
2018-07-13T02:19:27.185Z,91.54
2018-07-13T02:20:27.136Z,91.64
2018-07-13T02:21:27.085Z,91.64
2018-07-13T02:22:27.039Z,91.64
2018-07-13T02:23:26.992Z,91.45
2018-07-13T02:24:27.192Z,91.54
2018-07-13T02:25:26.893Z,91.74
2018-07-13T02:26:26.846Z,91.54
2018-07-13T02:27:26.796Z,91.54
2018-07-13T02:28:26.747Z,91.16
2018-07-13T02:29:26.699Z,91.64
2018-07-13T02:30:26.901Z,90.97
2018-07-13T02:31:26.602Z,91.54
2018-07-13T02:32:26.554Z,91.45
2018-07-13T02:33:26.506Z,91.83
2018-07-13T02:34:26.458Z,91.54
2018-07-13T02:35:26.412Z,91.64
2018-07-13T02:36:26.611Z,91.64
2018-07-13T02:37:26.313Z,91.45
2018-07-13T02:38:26.273Z,91.64
2018-07-13T02:39:26.217Z,91.45
2018-07-13T02:40:26.167Z,91.45
2018-07-13T02:41:26.120Z,91.64
2018-07-13T02:42:26.328Z,91.64
2018-07-13T02:43:26.023Z,92.30
2018-07-13T02:44:25.972Z,92.40
2018-07-13T02:45:25.934Z,92.02
2018-07-13T02:46:25.878Z,91.83
2018-07-13T02:47:25.837Z,91.64
2018-07-13T02:48:26.030Z,91.83
2018-07-13T02:49:25.732Z,91.83
2018-07-13T02:50:25.682Z,91.93
2018-07-13T02:51:25.633Z,91.93
2018-07-13T02:52:25.583Z,91.83
2018-07-13T02:53:25.538Z,91.93
2018-07-13T02:54:25.740Z,92.59
2018-07-13T02:55:25.439Z,92.21
2018-07-13T02:56:25.391Z,92.30
2018-07-13T02:57:25.343Z,91.54
2018-07-13T02:58:25.294Z,91.35
2018-07-13T02:59:25.245Z,91.35
2018-07-13T03:00:25.449Z,91.93
2018-07-13T03:01:25.152Z,91.74
2018-07-13T03:02:25.100Z,92.50
2018-07-13T03:03:25.051Z,92.11
2018-07-13T03:04:25.003Z,92.40
2018-07-13T03:05:24.954Z,92.02
2018-07-13T03:06:25.160Z,92.02
2018-07-13T03:07:24.860Z,92.40
2018-07-13T03:08:24.808Z,92.11
2018-07-13T03:09:24.764Z,91.16
2018-07-13T03:10:24.711Z,92.30
2018-07-13T03:11:24.661Z,92.30
2018-07-13T03:12:24.863Z,92.11
2018-07-13T03:13:24.564Z,92.59
2018-07-13T03:14:24.515Z,91.74
2018-07-13T03:15:24.467Z,91.30
2018-07-13T03:16:24.418Z,91.78
2018-07-13T03:17:24.370Z,92.64
2018-07-13T03:18:24.571Z,92.26
2018-07-13T03:19:24.274Z,92.26
2018-07-13T03:20:24.224Z,92.26
2018-07-13T03:21:24.175Z,92.45
2018-07-13T03:22:24.128Z,92.83
2018-07-13T03:23:24.078Z,92.64
2018-07-13T03:24:24.280Z,92.55
2018-07-13T03:25:23.981Z,92.93
2018-07-13T03:26:23.931Z,92.74
2018-07-13T03:27:23.883Z,92.83
2018-07-13T03:28:23.834Z,92.55
2018-07-13T03:29:23.785Z,92.30
2018-07-13T03:30:23.989Z,92.74
2018-07-13T03:31:23.689Z,92.26
2018-07-13T03:32:23.642Z,92.07
2018-07-13T03:33:23.592Z,92.21
2018-07-13T03:34:23.542Z,92.26
2018-07-13T03:35:23.492Z,92.16
2018-07-13T03:36:23.697Z,92.26
2018-07-13T03:37:23.396Z,92.26
2018-07-13T03:38:23.405Z,92.93
2018-07-13T03:39:23.303Z,92.93
2018-07-13T03:40:23.249Z,92.74
2018-07-13T03:41:23.201Z,92.74
2018-07-13T03:42:23.403Z,92.74
2018-07-13T03:43:23.111Z,93.12
2018-07-13T03:44:23.056Z,93.12
2018-07-13T03:45:23.006Z,93.41
2018-07-13T03:46:22.956Z,93.21
2018-07-13T03:47:22.907Z,93.21
2018-07-13T03:48:23.162Z,93.12
2018-07-13T03:49:22.810Z,93.31
2018-07-13T03:50:22.761Z,92.93
2018-07-13T03:51:22.712Z,93.41
2018-07-13T03:52:22.663Z,93.21
2018-07-13T03:53:22.614Z,93.41
2018-07-13T03:54:22.816Z,93.02
2018-07-13T03:55:22.516Z,93.41
2018-07-13T03:56:22.470Z,92.83
2018-07-13T03:57:22.419Z,93.12
2018-07-13T03:58:22.370Z,91.97
2018-07-13T03:59:22.323Z,92.16
2018-07-13T04:00:22.526Z,92.55
2018-07-13T04:01:22.224Z,93.02
2018-07-13T04:02:22.174Z,93.31
2018-07-13T04:03:22.125Z,92.83
2018-07-13T04:04:22.076Z,92.83
2018-07-13T04:05:22.278Z,92.41
2018-07-13T04:06:22.006Z,92.69
2018-07-13T04:07:21.932Z,93.55
2018-07-13T04:08:21.880Z,92.88
2018-07-13T04:09:21.832Z,92.88
2018-07-13T04:10:21.783Z,93.07
2018-07-13T04:11:21.983Z,93.17
2018-07-13T04:12:21.686Z,93.26
2018-07-13T04:13:22.145Z,93.17
2018-07-13T04:14:21.588Z,93.26
2018-07-13T04:15:21.538Z,92.93
2018-07-13T04:16:21.489Z,92.69
2018-07-13T04:17:21.690Z,92.64
2018-07-13T04:18:21.389Z,91.74
2018-07-13T04:19:21.341Z,92.50
2018-07-13T04:20:21.291Z,92.41
2018-07-13T04:21:21.244Z,92.60
2018-07-13T04:22:21.193Z,92.45
2018-07-13T04:23:21.395Z,92.31
2018-07-13T04:24:21.095Z,92.41
2018-07-13T04:25:21.047Z,92.60
2018-07-13T04:26:20.997Z,92.69
2018-07-13T04:27:20.952Z,93.17
2018-07-13T04:28:20.901Z,93.07
2018-07-13T04:29:21.100Z,92.79
2018-07-13T04:30:20.801Z,92.88
2018-07-13T04:31:21.261Z,92.55
2018-07-13T04:32:20.703Z,92.07
2018-07-13T04:33:20.654Z,91.88
2018-07-13T04:34:20.636Z,92.16
2018-07-13T04:35:20.809Z,92.45
2018-07-13T04:36:20.509Z,92.31
2018-07-13T04:37:20.458Z,92.07
2018-07-13T04:38:20.410Z,91.40
2018-07-13T04:39:20.363Z,91.59
2018-07-13T04:40:20.321Z,91.88
2018-07-13T04:41:20.514Z,91.74
2018-07-13T04:42:20.212Z,91.07
2018-07-13T04:43:20.163Z,92.02
2018-07-13T04:44:20.115Z,92.12
2018-07-13T04:45:20.066Z,92.21
2018-07-13T04:46:20.020Z,92.88
2018-07-13T04:47:20.216Z,92.31
2018-07-13T04:48:19.922Z,92.21
2018-07-13T04:49:19.869Z,91.83
2018-07-13T04:50:19.845Z,92.50
2018-07-13T04:51:19.771Z,92.41
2018-07-13T04:52:19.721Z,92.88
2018-07-13T04:53:19.923Z,92.41
2018-07-13T04:54:19.623Z,91.55
2018-07-13T04:55:19.574Z,91.36
2018-07-13T04:56:19.527Z,92.21
2018-07-13T04:57:19.477Z,92.21
2018-07-13T04:58:19.431Z,92.31
2018-07-13T04:59:19.631Z,92.02
2018-07-13T05:00:19.329Z,91.83
2018-07-13T05:01:19.280Z,91.83
2018-07-13T05:02:19.236Z,91.83
2018-07-13T05:03:19.182Z,92.12
2018-07-13T05:04:19.132Z,92.31
2018-07-13T05:05:19.334Z,92.50
2018-07-13T05:06:19.047Z,92.50
2018-07-13T05:07:18.985Z,92.88
2018-07-13T05:08:18.936Z,92.88
2018-07-13T05:09:18.887Z,92.74
2018-07-13T05:10:18.837Z,92.97
2018-07-13T05:11:19.038Z,93.84
2018-07-13T05:12:18.740Z,93.36
2018-07-13T05:13:18.690Z,93.07
2018-07-13T05:14:18.640Z,93.26
2018-07-13T05:15:18.591Z,92.69
2018-07-13T05:16:18.544Z,91.93
2018-07-13T05:17:18.744Z,91.55
2018-07-13T05:18:18.442Z,92.50
2018-07-13T05:19:18.394Z,93.26
2018-07-13T05:20:18.345Z,94.12
2018-07-13T05:21:18.299Z,93.84
2018-07-13T05:22:18.246Z,93.70
2018-07-13T05:23:18.447Z,94.17
2018-07-13T05:24:18.150Z,94.07
2018-07-13T05:25:18.098Z,94.07
2018-07-13T05:26:18.052Z,94.27
2018-07-13T05:27:18.000Z,94.46
2018-07-13T05:28:17.949Z,94.17
2018-07-13T05:29:18.155Z,93.79
2018-07-13T05:30:17.852Z,93.79
2018-07-13T05:31:17.803Z,93.98
2018-07-13T05:32:17.753Z,94.07
2018-07-13T05:33:17.704Z,93.70
2018-07-13T05:34:17.656Z,93.31
2018-07-13T05:35:17.856Z,93.41
2018-07-13T05:36:17.557Z,93.88
2018-07-13T05:37:17.508Z,93.79
2018-07-13T05:38:17.508Z,93.41
2018-07-13T05:39:17.410Z,94.17
2018-07-13T05:40:17.359Z,93.88
2018-07-13T05:41:17.560Z,93.79
2018-07-13T05:42:17.260Z,93.02
2018-07-13T05:43:17.212Z,92.83
2018-07-13T05:44:17.161Z,93.12
2018-07-13T05:45:17.113Z,93.02
2018-07-13T05:46:17.063Z,92.93
2018-07-13T05:47:17.264Z,93.12
2018-07-13T05:48:16.964Z,93.12
2018-07-13T05:49:16.915Z,92.83
2018-07-13T05:50:16.865Z,93.12
2018-07-13T05:51:16.824Z,93.12
2018-07-13T05:52:16.767Z,93.22
2018-07-13T05:53:16.968Z,92.93
2018-07-13T05:54:16.703Z,93.12
2018-07-13T05:55:16.618Z,92.93
2018-07-13T05:56:16.569Z,92.65
2018-07-13T05:57:16.520Z,92.83
2018-07-13T05:58:16.470Z,93.31
2018-07-13T05:59:16.672Z,93.12
2018-07-13T06:00:16.373Z,93.12
2018-07-13T06:01:16.324Z,92.74
2018-07-13T06:02:16.272Z,92.97
2018-07-13T06:03:16.229Z,92.60
2018-07-13T06:04:16.174Z,92.50
2018-07-13T06:05:16.375Z,92.83
2018-07-13T06:06:16.075Z,93.02
2018-07-13T06:07:16.030Z,93.02
2018-07-13T06:08:15.976Z,93.88
2018-07-13T06:09:15.930Z,93.31
2018-07-13T06:10:15.878Z,94.17
2018-07-13T06:11:16.082Z,94.56
2018-07-13T06:12:15.778Z,94.65
2018-07-13T06:13:15.733Z,94.46
2018-07-13T06:14:15.680Z,93.88
2018-07-13T06:15:15.631Z,93.79
2018-07-13T06:16:15.581Z,93.22
2018-07-13T06:17:15.783Z,93.12
2018-07-13T06:18:15.482Z,93.12
2018-07-13T06:19:15.436Z,93.31
2018-07-13T06:20:15.405Z,93.41
2018-07-13T06:21:15.334Z,92.93
2018-07-13T06:22:15.287Z,93.22
2018-07-13T06:23:15.487Z,92.74
2018-07-13T06:24:15.234Z,93.46
2018-07-13T06:25:15.139Z,92.88
2018-07-13T06:26:15.088Z,92.93
2018-07-13T06:27:15.044Z,92.79
2018-07-13T06:28:14.988Z,92.69
2018-07-13T06:29:15.189Z,93.31
2018-07-13T06:30:14.901Z,92.83
2018-07-13T06:31:14.841Z,92.41
2018-07-13T06:32:14.791Z,91.98
2018-07-13T06:33:14.741Z,92.07
2018-07-13T06:34:14.692Z,92.65
2018-07-13T06:35:14.893Z,93.12
2018-07-13T06:36:14.593Z,93.51
2018-07-13T06:37:14.544Z,93.60
2018-07-13T06:38:14.494Z,93.79
2018-07-13T06:39:14.444Z,93.88
2018-07-13T06:40:14.645Z,93.79
2018-07-13T06:41:14.346Z,93.79
2018-07-13T06:42:14.296Z,93.70
2018-07-13T06:43:14.246Z,93.51
2018-07-13T06:44:14.198Z,93.31
2018-07-13T06:45:14.148Z,93.22
2018-07-13T06:46:14.349Z,93.22
2018-07-13T06:47:14.048Z,93.31
2018-07-13T06:48:13.999Z,93.41
2018-07-13T06:49:13.949Z,93.12
2018-07-13T06:50:13.902Z,92.93
2018-07-13T06:51:13.858Z,93.12
2018-07-13T06:52:14.053Z,93.31
2018-07-13T06:53:13.752Z,93.22
2018-07-13T06:54:13.702Z,93.31
2018-07-13T06:55:13.653Z,93.41
2018-07-13T06:56:13.603Z,93.22
2018-07-13T06:57:13.554Z,93.12
2018-07-13T06:58:13.755Z,93.12
2018-07-13T06:59:13.454Z,92.93
2018-07-13T07:00:13.408Z,93.08
2018-07-13T07:01:13.357Z,93.79
2018-07-13T07:02:13.310Z,93.74
2018-07-13T07:03:13.257Z,93.98
2018-07-13T07:04:13.458Z,94.51
2018-07-13T07:05:13.158Z,95.56
2018-07-13T07:06:13.110Z,95.56
2018-07-13T07:07:13.059Z,95.75
2018-07-13T07:08:13.010Z,96.03
2018-07-13T07:09:13.210Z,96.13
2018-07-13T07:10:12.914Z,96.51
2018-07-13T07:11:12.860Z,96.61
2018-07-13T07:12:12.811Z,96.13
2018-07-13T07:13:12.762Z,96.66
2018-07-13T07:14:12.714Z,96.17
2018-07-13T07:15:12.912Z,95.79
2018-07-13T07:16:12.613Z,95.61
2018-07-13T07:17:12.564Z,95.41
2018-07-13T07:18:12.512Z,95.51
2018-07-13T07:19:12.464Z,95.61
2018-07-13T07:20:12.418Z,96.08
2018-07-13T07:21:12.615Z,96.56
2018-07-13T07:22:12.316Z,96.46
2018-07-13T07:23:12.265Z,96.56
2018-07-13T07:24:12.217Z,96.37
2018-07-13T07:25:12.169Z,95.89
2018-07-13T07:26:12.116Z,95.41
2018-07-13T07:27:12.319Z,95.79
2018-07-13T07:28:12.018Z,95.41
2018-07-13T07:29:11.969Z,95.22
2018-07-13T07:30:11.921Z,95.41
2018-07-13T07:31:11.870Z,95.89
2018-07-13T07:32:11.820Z,96.46
2018-07-13T07:33:12.021Z,96.56
2018-07-13T07:34:11.723Z,96.75
2018-07-13T07:35:11.673Z,96.46
2018-07-13T07:36:11.625Z,97.03
2018-07-13T07:37:11.573Z,97.42
2018-07-13T07:38:11.522Z,96.66
2018-07-13T07:39:11.725Z,96.94
2018-07-13T07:40:11.426Z,96.94
2018-07-13T07:41:11.376Z,96.94
2018-07-13T07:42:11.326Z,97.22
2018-07-13T07:43:11.276Z,97.42
2018-07-13T07:44:11.229Z,97.32
2018-07-13T07:45:11.428Z,97.42
2018-07-13T07:46:11.130Z,97.61
2018-07-13T07:47:11.079Z,97.80
2018-07-13T07:48:11.031Z,97.99
2018-07-13T07:49:10.982Z,97.89
2018-07-13T07:50:10.932Z,98.18
2018-07-13T07:51:11.135Z,97.89
2018-07-13T07:52:10.833Z,98.37
2018-07-13T07:53:10.784Z,98.47
2018-07-13T07:54:10.735Z,98.37
2018-07-13T07:55:10.687Z,98.66
2018-07-13T07:56:10.639Z,99.23
2018-07-13T07:57:10.838Z,99.23
2018-07-13T07:58:10.539Z,98.94
2018-07-13T07:59:10.487Z,99.52
2018-07-13T08:00:10.441Z,99.90
2018-07-13T08:01:10.391Z,99.99
2018-07-13T08:02:10.341Z,99.90
2018-07-13T08:03:10.542Z,99.90
2018-07-13T08:04:10.242Z,99.99
2018-07-13T08:05:10.194Z,99.99
2018-07-13T08:06:10.200Z,99.99
2018-07-13T08:07:10.530Z,99.80
2018-07-13T08:08:10.050Z,99.99
2018-07-13T08:09:10.246Z,99.99
2018-07-13T08:10:09.946Z,99.99
2018-07-13T08:11:09.897Z,99.99
2018-07-13T08:12:09.847Z,99.99
2018-07-13T08:13:09.798Z,99.99
2018-07-13T08:14:09.950Z,99.99
2018-07-13T08:15:10.461Z,99.99
2018-07-13T08:16:09.650Z,99.99
2018-07-13T08:17:09.600Z,99.99
2018-07-13T08:18:09.550Z,99.99
2018-07-13T08:19:09.503Z,99.99
2018-07-13T08:20:09.452Z,99.99
2018-07-13T08:21:09.652Z,99.99
2018-07-13T08:22:09.352Z,99.99
2018-07-13T08:23:09.305Z,99.99
2018-07-13T08:24:09.253Z,99.99
2018-07-13T08:25:09.202Z,99.99
2018-07-13T08:26:09.154Z,99.99
2018-07-13T08:27:09.354Z,99.99
2018-07-13T08:28:09.056Z,99.99
2018-07-13T08:29:09.005Z,99.99
2018-07-13T08:30:08.955Z,99.99
2018-07-13T08:31:08.906Z,99.99
2018-07-13T08:32:08.856Z,99.99
2018-07-13T08:33:09.057Z,99.99
2018-07-13T08:34:08.757Z,99.99
2018-07-13T08:35:08.707Z,99.99
2018-07-13T08:36:08.657Z,99.99
2018-07-13T08:37:08.608Z,99.99
2018-07-13T08:38:08.558Z,99.99
2018-07-13T08:39:08.759Z,99.99
2018-07-13T08:40:08.482Z,99.99
2018-07-13T08:41:08.410Z,99.99
2018-07-13T08:42:08.360Z,99.99
2018-07-13T08:43:08.310Z,99.99
2018-07-13T08:44:08.383Z,99.99
2018-07-13T08:45:08.462Z,99.99
2018-07-13T08:46:08.162Z,99.99
2018-07-13T08:47:08.112Z,99.99
2018-07-13T08:48:08.062Z,99.99
2018-07-13T08:49:08.013Z,99.99
2018-07-13T08:50:07.963Z,99.99
2018-07-13T08:51:08.165Z,99.99
2018-07-13T08:52:07.864Z,99.99
2018-07-13T08:53:07.817Z,99.99
2018-07-13T08:54:07.766Z,99.99
2018-07-13T08:55:07.717Z,99.99
2018-07-13T08:56:07.709Z,99.99
2018-07-13T08:57:07.868Z,99.99
2018-07-13T08:58:07.569Z,99.99
2018-07-13T08:59:07.518Z,99.99
2018-07-13T09:00:07.470Z,99.99
2018-07-13T09:01:07.420Z,99.99
2018-07-13T09:02:07.371Z,99.99
2018-07-13T09:03:07.572Z,99.99
2018-07-13T09:04:07.317Z,99.99
2018-07-13T09:05:07.223Z,99.99
2018-07-13T09:06:07.173Z,99.99
2018-07-13T09:07:07.128Z,99.99
2018-07-13T09:08:07.075Z,99.99
2018-07-13T09:09:07.276Z,99.99
2018-07-13T09:10:06.976Z,99.99
2018-07-13T09:11:06.926Z,99.99
2018-07-13T09:12:06.877Z,99.99
2018-07-13T09:13:06.828Z,99.99
2018-07-13T09:14:06.779Z,99.99
2018-07-13T09:15:06.982Z,99.99
2018-07-13T09:16:06.733Z,99.99
2018-07-13T09:17:06.659Z,99.99
2018-07-13T09:18:06.584Z,99.99
2018-07-13T09:19:06.531Z,99.99
2018-07-13T09:20:06.482Z,99.99
2018-07-13T09:21:06.685Z,99.99
2018-07-13T09:22:06.383Z,99.99
2018-07-13T09:23:06.333Z,99.99
2018-07-13T09:24:06.325Z,99.99
2018-07-13T09:25:06.235Z,99.99
2018-07-13T09:26:06.187Z,99.99
2018-07-13T09:27:06.386Z,99.99
2018-07-13T09:28:06.088Z,99.99
2018-07-13T09:29:06.039Z,99.99
2018-07-13T09:30:05.988Z,99.99
2018-07-13T09:31:05.985Z,99.99
2018-07-13T09:32:05.889Z,99.99
2018-07-13T09:33:06.091Z,99.99
2018-07-13T09:34:05.793Z,99.99
2018-07-13T09:35:05.764Z,99.99
2018-07-13T09:36:05.692Z,99.99
2018-07-13T09:37:05.643Z,99.99
2018-07-13T09:38:05.657Z,99.99
2018-07-13T09:39:05.795Z,99.99
2018-07-13T09:40:05.496Z,99.99
2018-07-13T09:41:05.446Z,99.99
2018-07-13T09:42:05.397Z,99.99
2018-07-13T09:43:05.350Z,99.99
2018-07-13T09:44:05.296Z,99.99
2018-07-13T09:45:05.504Z,99.99
2018-07-13T09:46:05.200Z,99.99
2018-07-13T09:47:05.255Z,99.99
2018-07-13T09:48:05.101Z,99.99
2018-07-13T09:49:05.051Z,99.99
2018-07-13T09:50:05.002Z,99.99
2018-07-13T09:51:05.656Z,99.99
2018-07-13T09:52:04.903Z,99.99
2018-07-13T09:53:04.857Z,99.99
2018-07-13T09:54:04.899Z,99.99
2018-07-13T09:55:04.833Z,99.99
2018-07-13T09:56:04.706Z,99.99
2018-07-13T09:57:04.916Z,99.99
2018-07-13T09:58:04.607Z,99.99
2018-07-13T09:59:04.558Z,99.99
2018-07-13T10:00:04.561Z,99.99
2018-07-13T10:01:04.458Z,99.99
2018-07-13T10:02:04.412Z,99.99
2018-07-13T10:03:04.611Z,99.99
2018-07-13T10:04:04.312Z,99.99
2018-07-13T10:05:04.263Z,99.99
2018-07-13T10:06:04.213Z,99.99
2018-07-13T10:07:04.165Z,99.99
2018-07-13T10:08:04.115Z,99.99
2018-07-13T10:09:04.316Z,99.99
2018-07-13T10:10:04.016Z,99.99
2018-07-13T10:11:03.971Z,99.99
2018-07-13T10:12:03.920Z,99.99
2018-07-13T10:13:03.868Z,99.99
2018-07-13T10:14:03.828Z,99.99
2018-07-13T10:15:04.021Z,99.99
2018-07-13T10:16:03.720Z,99.99
2018-07-13T10:17:03.673Z,99.99
2018-07-13T10:18:03.622Z,99.99
2018-07-13T10:19:03.573Z,99.99
2018-07-13T10:20:03.525Z,99.99
2018-07-13T10:21:03.724Z,99.99
2018-07-13T10:22:03.425Z,99.99
2018-07-13T10:23:03.419Z,99.99
2018-07-13T10:24:03.327Z,99.99
2018-07-13T10:25:03.278Z,99.99
2018-07-13T10:26:03.230Z,99.99
2018-07-13T10:27:03.431Z,99.99
2018-07-13T10:28:03.133Z,99.99
2018-07-13T10:29:03.131Z,99.99
2018-07-13T10:30:03.034Z,99.99
2018-07-13T10:31:02.989Z,99.99
2018-07-13T10:32:02.936Z,99.99
2018-07-13T10:33:03.138Z,99.99
2018-07-13T10:34:02.839Z,99.99
2018-07-13T10:35:02.789Z,99.99
2018-07-13T10:36:02.741Z,99.99
2018-07-13T10:37:02.696Z,99.99
2018-07-13T10:38:02.643Z,99.99
2018-07-13T10:39:02.845Z,99.99
2018-07-13T10:40:02.563Z,99.99
2018-07-13T10:41:02.497Z,99.99
2018-07-13T10:42:02.448Z,99.99
2018-07-13T10:43:02.399Z,99.99
2018-07-13T10:44:02.354Z,99.99
2018-07-13T10:45:02.560Z,99.99
2018-07-13T10:46:02.253Z,99.99
2018-07-13T10:47:02.204Z,99.99
2018-07-13T10:48:02.169Z,99.99
2018-07-13T10:49:02.107Z,99.99
2018-07-13T10:50:02.061Z,99.99
2018-07-13T10:51:02.259Z,99.99
2018-07-13T10:52:02.181Z,99.99
2018-07-13T10:53:01.911Z,99.99
2018-07-13T10:54:01.863Z,99.90
2018-07-13T10:55:01.815Z,99.52
2018-07-13T10:56:01.793Z,99.61
2018-07-13T10:57:02.051Z,99.99
2018-07-13T10:58:01.669Z,99.66
2018-07-13T10:59:01.623Z,99.47
2018-07-13T11:00:01.574Z,99.04
2018-07-13T11:01:01.526Z,97.42
2018-07-13T11:02:01.502Z,96.84
2018-07-13T11:03:01.707Z,96.03
2018-07-13T11:04:01.410Z,94.79
2018-07-13T11:05:01.371Z,93.65
2018-07-13T11:06:01.319Z,93.16
2018-07-13T11:07:01.269Z,92.97
2018-07-13T11:08:01.293Z,92.88
2018-07-13T11:09:01.434Z,93.45
2018-07-13T11:10:01.116Z,92.97
2018-07-13T11:11:01.084Z,92.79
2018-07-13T11:12:01.076Z,92.11
2018-07-13T11:13:01.058Z,91.83
2018-07-13T11:14:01.055Z,92.11
2018-07-13T11:15:01.151Z,91.64
2018-07-13T11:16:00.858Z,91.45
2018-07-13T11:17:00.823Z,90.88
2018-07-13T11:18:00.764Z,90.63
2018-07-13T11:19:00.722Z,90.82
2018-07-13T11:20:00.670Z,90.25
2018-07-13T11:21:00.879Z,89.96
2018-07-13T11:22:00.577Z,89.77
2018-07-13T11:23:00.521Z,88.62
2018-07-13T11:24:00.490Z,88.34
2018-07-13T11:25:00.449Z,88.24
2018-07-13T11:26:00.389Z,88.34
2018-07-13T11:27:00.587Z,88.34
2018-07-13T11:28:00.300Z,88.43
2018-07-13T11:29:00.244Z,87.90
2018-07-13T11:30:00.214Z,87.71
2018-07-13T11:31:00.165Z,87.48
2018-07-13T11:32:00.118Z,86.90
2018-07-13T11:33:00.312Z,87.00
2018-07-13T11:34:00.039Z,87.43
2018-07-13T11:34:59.989Z,87.48
2018-07-13T11:35:59.938Z,88.15
2018-07-13T11:36:59.952Z,87.43
2018-07-13T11:37:59.855Z,86.57
2018-07-13T11:39:00.047Z,86.80
2018-07-13T11:39:59.749Z,86.66
2018-07-13T11:40:59.709Z,87.00
2018-07-13T11:41:59.646Z,86.61
2018-07-13T11:42:59.623Z,86.90
2018-07-13T11:43:59.591Z,87.48
2018-07-13T11:44:59.769Z,88.43
2018-07-13T11:45:59.472Z,88.24
2018-07-13T11:46:59.430Z,88.05
2018-07-13T11:47:59.381Z,88.81
2018-07-13T11:48:59.329Z,89.20
2018-07-13T11:49:59.292Z,88.81
2018-07-13T11:50:59.472Z,88.62
2018-07-13T11:51:59.200Z,88.43
2018-07-13T11:52:59.141Z,88.34
2018-07-13T11:53:59.098Z,87.76
2018-07-13T11:54:59.047Z,87.76
2018-07-13T11:55:59.008Z,87.95
2018-07-13T11:56:59.213Z,87.86
2018-07-13T11:57:58.913Z,88.15
2018-07-13T11:58:58.867Z,87.38
2018-07-13T11:59:58.819Z,88.15
2018-07-13T12:00:58.771Z,87.86
2018-07-13T12:01:58.725Z,87.29
2018-07-13T12:02:58.926Z,88.05
2018-07-13T12:03:58.635Z,89.10
2018-07-13T12:04:58.588Z,88.34
2018-07-13T12:05:58.541Z,87.29
2018-07-13T12:06:58.482Z,87.29
2018-07-13T12:07:58.438Z,87.38
2018-07-13T12:08:58.650Z,88.09
2018-07-13T12:09:58.347Z,87.81
2018-07-13T12:10:58.304Z,87.90
2018-07-13T12:11:58.256Z,86.66
2018-07-13T12:12:58.310Z,86.37
2018-07-13T12:13:58.235Z,85.51
2018-07-13T12:14:58.605Z,85.71
2018-07-13T12:15:58.111Z,85.51
2018-07-13T12:16:58.033Z,85.51
2018-07-13T12:17:57.975Z,85.22
2018-07-13T12:18:57.930Z,84.55
2018-07-13T12:19:57.913Z,84.94
2018-07-13T12:20:58.084Z,85.32
2018-07-13T12:21:57.791Z,85.71
2018-07-13T12:22:57.738Z,85.80
2018-07-13T12:23:57.731Z,86.47
2018-07-13T12:24:57.659Z,85.51
2018-07-13T12:25:57.630Z,85.03
2018-07-13T12:26:57.857Z,83.40
2018-07-13T12:27:57.514Z,84.12
2018-07-13T12:28:57.474Z,83.83
2018-07-13T12:29:57.412Z,83.06
2018-07-13T12:30:57.370Z,83.03
2018-07-13T12:31:57.317Z,84.08
2018-07-13T12:32:57.519Z,83.31
2018-07-13T12:33:57.225Z,83.22
2018-07-13T12:34:57.175Z,83.26
2018-07-13T12:35:57.149Z,82.26
2018-07-13T12:36:57.070Z,81.44
2018-07-13T12:37:57.052Z,81.25
2018-07-13T12:38:57.248Z,81.92
2018-07-13T12:39:57.048Z,81.63
2018-07-13T12:40:56.909Z,81.05
2018-07-13T12:41:56.854Z,80.96
2018-07-13T12:42:56.785Z,81.05
2018-07-13T12:43:56.757Z,81.05
2018-07-13T12:44:56.962Z,80.38
2018-07-13T12:45:56.663Z,80.10
2018-07-13T12:46:56.617Z,80.10
2018-07-13T12:47:56.572Z,80.10
2018-07-13T12:48:56.535Z,80.38
2018-07-13T12:49:56.474Z,80.48
2018-07-13T12:50:56.678Z,79.37
2018-07-13T12:51:56.385Z,80.19